createdAt,value
2017-09-18T00:00:10.237Z,18.61
2017-09-18T00:00:38.243Z,18.68
2017-09-18T00:01:06.161Z,18.57
2017-09-18T00:01:34.163Z,18.61
2017-09-18T00:02:02.050Z,18.57
2017-09-18T00:02:30.021Z,18.59
2017-09-18T00:02:58.151Z,18.61
2017-09-18T00:03:26.274Z,18.66
2017-09-18T00:03:54.191Z,18.63
2017-09-18T00:04:22.265Z,18.61
2017-09-18T00:04:50.154Z,18.68
2017-09-18T00:05:18.055Z,18.6
2017-09-18T00:05:45.846Z,18.59
2017-09-18T00:06:13.948Z,18.68
2017-09-18T00:06:41.883Z,18.6
2017-09-18T00:07:09.821Z,18.66
2017-09-18T00:07:37.729Z,18.61
2017-09-18T00:08:05.867Z,18.66
2017-09-18T00:08:33.856Z,18.66
2017-09-18T00:09:01.869Z,18.65
2017-09-18T00:09:29.870Z,18.71
2017-09-18T00:09:57.972Z,18.72
2017-09-18T00:10:26.113Z,18.69
2017-09-18T00:10:54.016Z,18.68
2017-09-18T00:11:22.022Z,18.71
2017-09-18T00:11:50.034Z,18.69
2017-09-18T00:12:18.039Z,18.74
2017-09-18T00:12:46.136Z,18.75
2017-09-18T00:13:14.014Z,18.75
2017-09-18T00:13:42.003Z,18.72
2017-09-18T00:14:10.011Z,18.68
2017-09-18T00:14:38.127Z,18.66
2017-09-18T00:15:06.256Z,18.65
2017-09-18T00:15:34.350Z,18.6
2017-09-18T00:16:02.360Z,18.63
2017-09-18T00:16:30.579Z,18.68
2017-09-18T00:16:58.501Z,18.68
2017-09-18T00:17:26.479Z,18.68
2017-09-18T00:17:54.377Z,18.68
2017-09-18T00:18:22.507Z,18.65
2017-09-18T00:18:50.300Z,18.69
2017-09-18T00:19:18.316Z,18.74
2017-09-18T00:19:46.297Z,18.74
2017-09-18T00:20:14.203Z,18.74
2017-09-18T00:20:42.113Z,18.71
2017-09-18T00:21:10.005Z,18.61
2017-09-18T00:21:38.033Z,18.66
2017-09-18T00:22:06.039Z,18.63
2017-09-18T00:22:33.959Z,18.56
2017-09-18T00:23:01.952Z,18.63
2017-09-18T00:23:29.973Z,18.61
2017-09-18T00:23:57.782Z,18.68
2017-09-18T00:24:25.599Z,18.61
2017-09-18T00:24:53.570Z,18.61
2017-09-18T00:25:21.690Z,18.65
2017-09-18T00:25:49.494Z,18.63
2017-09-18T00:26:17.727Z,18.59
2017-09-18T00:26:45.410Z,18.61
2017-09-18T00:27:13.327Z,18.68
2017-09-18T00:27:41.456Z,18.65
2017-09-18T00:28:09.448Z,18.57
2017-09-18T00:28:37.447Z,18.59
2017-09-18T00:29:05.496Z,18.56
2017-09-18T00:29:33.420Z,18.59
2017-09-18T00:30:01.524Z,18.6
2017-09-18T00:30:29.337Z,18.63
2017-09-18T00:30:57.348Z,18.61
2017-09-18T00:31:25.489Z,18.6
2017-09-18T00:31:53.608Z,18.54
2017-09-18T00:32:21.586Z,18.6
2017-09-18T00:32:49.549Z,18.6
2017-09-18T00:33:17.541Z,18.57
2017-09-18T00:33:45.528Z,18.5
2017-09-18T00:34:13.532Z,18.49
2017-09-18T00:34:41.321Z,18.56
2017-09-18T00:35:09.460Z,18.61
2017-09-18T00:35:37.304Z,18.5
2017-09-18T00:36:05.416Z,18.54
2017-09-18T00:36:33.503Z,18.61
2017-09-18T00:37:01.522Z,18.59
2017-09-18T00:37:29.440Z,18.65
2017-09-18T00:37:57.477Z,18.63
2017-09-18T00:38:25.598Z,18.61
2017-09-18T00:38:53.712Z,18.61
2017-09-18T00:39:21.614Z,18.63
2017-09-18T00:39:49.700Z,18.54
2017-09-18T00:40:17.731Z,18.54
2017-09-18T00:40:45.615Z,18.61
2017-09-18T00:41:13.714Z,18.66
2017-09-18T00:41:41.892Z,18.65
2017-09-18T00:42:10.019Z,18.66
2017-09-18T00:42:37.953Z,18.59
2017-09-18T00:43:05.873Z,18.68
2017-09-18T00:43:33.792Z,18.59
2017-09-18T00:44:01.792Z,18.68
2017-09-18T00:44:29.894Z,18.68
2017-09-18T00:44:58.030Z,18.69
2017-09-18T00:45:25.938Z,18.66
2017-09-18T00:45:54.025Z,18.71
2017-09-18T00:46:22.019Z,18.63
2017-09-18T00:46:49.921Z,18.61
2017-09-18T00:47:17.858Z,18.6
2017-09-18T00:47:45.988Z,18.61
2017-09-18T00:48:13.784Z,18.63
2017-09-18T00:48:41.820Z,18.65
2017-09-18T00:49:09.840Z,18.66
2017-09-18T00:49:37.638Z,18.72
2017-09-18T00:50:05.460Z,18.63
2017-09-18T00:50:33.375Z,18.61
2017-09-18T00:51:01.293Z,18.59
2017-09-18T00:51:29.304Z,18.68
2017-09-18T00:51:57.428Z,18.65
2017-09-18T00:52:25.439Z,18.63
2017-09-18T00:52:53.371Z,18.63
2017-09-18T00:53:21.456Z,18.6
2017-09-18T00:53:49.549Z,18.63
2017-09-18T00:54:17.548Z,18.49
2017-09-18T00:54:45.676Z,18.5
2017-09-18T00:55:13.594Z,18.51
2017-09-18T00:55:41.724Z,18.53
2017-09-18T00:56:09.614Z,18.51
2017-09-18T00:56:37.715Z,18.59
2017-09-18T00:57:05.644Z,18.51
2017-09-18T00:57:33.646Z,18.53
2017-09-18T00:58:01.758Z,18.61
2017-09-18T00:58:29.761Z,18.5
2017-09-18T00:58:57.785Z,18.51
2017-09-18T00:59:25.831Z,18.5
2017-09-18T00:59:53.961Z,18.6
2017-09-18T01:00:21.968Z,18.6
2017-09-18T01:00:50.035Z,18.53
2017-09-18T01:01:17.941Z,18.61
2017-09-18T01:01:46.155Z,18.54
2017-09-18T01:02:14.273Z,18.54
2017-09-18T01:02:42.070Z,18.63
2017-09-18T01:03:10.100Z,18.54
2017-09-18T01:03:38.209Z,18.57
2017-09-18T01:04:06.145Z,18.6
2017-09-18T01:04:34.053Z,18.57
2017-09-18T01:05:01.985Z,18.49
2017-09-18T01:05:29.880Z,18.53
2017-09-18T01:05:57.698Z,18.5
2017-09-18T01:06:25.638Z,18.5
2017-09-18T01:06:53.737Z,18.53
2017-09-18T01:07:21.759Z,18.51
2017-09-18T01:07:49.755Z,18.57
2017-09-18T01:08:17.762Z,18.5
2017-09-18T01:08:45.774Z,18.6
2017-09-18T01:09:13.701Z,18.51
2017-09-18T01:09:41.836Z,18.45
2017-09-18T01:10:09.935Z,18.47
2017-09-18T01:10:38.004Z,18.53
2017-09-18T01:11:05.783Z,18.51
2017-09-18T01:11:33.814Z,18.45
2017-09-18T01:12:02.036Z,18.38
2017-09-18T01:12:30.028Z,18.34
2017-09-18T01:12:57.943Z,18.53
2017-09-18T01:13:25.914Z,18.47
2017-09-18T01:13:53.939Z,18.36
2017-09-18T01:14:21.975Z,18.45
2017-09-18T01:14:50.070Z,18.36
2017-09-18T01:15:17.935Z,18.53
2017-09-18T01:15:45.947Z,18.56
2017-09-18T01:16:13.764Z,18.49
2017-09-18T01:16:41.867Z,18.41
2017-09-18T01:17:09.975Z,18.36
2017-09-18T01:17:37.982Z,18.47
2017-09-18T01:18:05.875Z,18.41
2017-09-18T01:18:33.911Z,18.39
2017-09-18T01:19:02.026Z,18.36
2017-09-18T01:19:29.971Z,18.38
2017-09-18T01:19:58.130Z,18.41
2017-09-18T01:20:26.178Z,18.36
2017-09-18T01:20:54.192Z,18.36
2017-09-18T01:21:22.190Z,18.36
2017-09-18T01:21:50.268Z,18.49
2017-09-18T01:22:18.374Z,18.53
2017-09-18T01:22:46.391Z,18.49
2017-09-18T01:23:14.291Z,18.56
2017-09-18T01:23:42.221Z,18.45
2017-09-18T01:24:10.314Z,18.53
2017-09-18T01:24:38.373Z,18.45
2017-09-18T01:25:06.488Z,18.59
2017-09-18T01:25:34.480Z,18.65
2017-09-18T01:26:02.497Z,18.66
2017-09-18T01:26:30.217Z,18.61
2017-09-18T01:26:58.363Z,18.5
2017-09-18T01:27:26.291Z,18.63
2017-09-18T01:27:54.391Z,18.6
2017-09-18T01:28:22.481Z,18.5
2017-09-18T01:28:50.602Z,18.57
2017-09-18T01:29:18.506Z,18.63
2017-09-18T01:29:46.495Z,18.5
2017-09-18T01:30:14.502Z,18.51
2017-09-18T01:30:42.437Z,18.61
2017-09-18T01:31:10.238Z,18.63
2017-09-18T01:31:38.227Z,18.59
2017-09-18T01:32:06.355Z,18.61
2017-09-18T01:32:34.353Z,18.63
2017-09-18T01:33:02.377Z,18.66
2017-09-18T01:33:30.470Z,18.63
2017-09-18T01:33:58.418Z,18.63
2017-09-18T01:34:26.441Z,18.61
2017-09-18T01:34:54.228Z,18.68
2017-09-18T01:35:22.239Z,18.65
2017-09-18T01:35:50.362Z,18.68
2017-09-18T01:36:18.332Z,18.69
2017-09-18T01:36:46.477Z,18.66
2017-09-18T01:37:14.672Z,18.61
2017-09-18T01:37:42.659Z,18.63
2017-09-18T01:38:10.590Z,18.65
2017-09-18T01:38:38.688Z,18.69
2017-09-18T01:39:06.610Z,18.66
2017-09-18T01:39:34.426Z,18.61
2017-09-18T01:40:02.463Z,18.63
2017-09-18T01:40:30.484Z,18.66
2017-09-18T01:40:58.397Z,18.59
2017-09-18T01:41:26.483Z,18.59
2017-09-18T01:41:54.691Z,18.6
2017-09-18T01:42:22.698Z,18.53
2017-09-18T01:42:50.676Z,18.63
2017-09-18T01:43:18.807Z,18.63
2017-09-18T01:43:46.735Z,18.59
2017-09-18T01:44:14.649Z,18.6
2017-09-18T01:44:42.662Z,18.63
2017-09-18T01:45:10.691Z,18.53
2017-09-18T01:45:38.687Z,18.57
2017-09-18T01:46:06.505Z,18.61
2017-09-18T01:46:34.393Z,18.63
2017-09-18T01:47:02.328Z,18.59
2017-09-18T01:47:30.314Z,18.6
2017-09-18T01:47:58.452Z,18.56
2017-09-18T01:48:26.449Z,18.61
2017-09-18T01:48:54.355Z,18.63
2017-09-18T01:49:22.297Z,18.54
2017-09-18T01:49:50.217Z,18.5
2017-09-18T01:50:18.246Z,18.5
2017-09-18T01:50:46.243Z,18.42
2017-09-18T01:51:14.147Z,18.36
2017-09-18T01:51:42.056Z,18.39
2017-09-18T01:52:10.141Z,18.29
2017-09-18T01:52:38.138Z,18.32
2017-09-18T01:53:06.064Z,18.32
2017-09-18T01:53:34.143Z,18.27
2017-09-18T01:54:01.934Z,18.31
2017-09-18T01:54:30.052Z,18.26
2017-09-18T01:54:58.035Z,18.24
2017-09-18T01:55:26.061Z,18.29
2017-09-18T01:55:54.076Z,18.32
2017-09-18T01:56:21.967Z,18.31
2017-09-18T01:56:49.969Z,18.36
2017-09-18T01:57:18.085Z,18.27
2017-09-18T01:57:46.099Z,18.29
2017-09-18T01:58:14.220Z,18.31
2017-09-18T01:58:42.010Z,18.36
2017-09-18T01:59:09.905Z,18.29
2017-09-18T01:59:37.832Z,18.42
2017-09-18T02:00:05.871Z,18.38
2017-09-18T02:00:33.956Z,18.38
2017-09-18T02:01:01.964Z,18.41
2017-09-18T02:01:29.962Z,18.41
2017-09-18T02:01:58.076Z,18.35
2017-09-18T02:02:26.180Z,18.39
2017-09-18T02:02:54.293Z,18.34
2017-09-18T02:03:22.382Z,18.39
2017-09-18T02:03:50.195Z,18.41
2017-09-18T02:04:17.915Z,18.36
2017-09-18T02:04:46.032Z,18.29
2017-09-18T02:05:14.003Z,18.32
2017-09-18T02:05:42.060Z,18.35
2017-09-18T02:06:10.095Z,18.27
2017-09-18T02:06:38.240Z,18.32
2017-09-18T02:07:06.464Z,18.31
2017-09-18T02:07:34.595Z,18.31
2017-09-18T02:08:02.609Z,18.34
2017-09-18T02:08:30.701Z,18.32
2017-09-18T02:08:58.696Z,18.31
2017-09-18T02:09:26.678Z,18.34
2017-09-18T02:09:54.482Z,18.27
2017-09-18T02:10:22.501Z,18.26
2017-09-18T02:10:50.416Z,18.24
2017-09-18T02:11:18.511Z,18.23
2017-09-18T02:11:46.577Z,18.21
2017-09-18T02:12:14.626Z,18.29
2017-09-18T02:12:42.578Z,18.24
2017-09-18T02:13:10.648Z,18.2
2017-09-18T02:13:38.657Z,18.11
2017-09-18T02:14:06.773Z,18.21
2017-09-18T02:14:34.795Z,18.21
2017-09-18T02:15:02.719Z,18.26
2017-09-18T02:15:30.535Z,18.26
2017-09-18T02:15:58.475Z,18.27
2017-09-18T02:16:26.399Z,18.26
2017-09-18T02:16:54.526Z,18.19
2017-09-18T02:17:22.633Z,18.17
2017-09-18T02:17:50.645Z,18.27
2017-09-18T02:18:18.687Z,18.24
2017-09-18T02:18:46.707Z,18.23
2017-09-18T02:19:14.656Z,18.26
2017-09-18T02:19:42.772Z,18.23
2017-09-18T02:20:10.467Z,18.23
2017-09-18T02:20:38.566Z,18.24
2017-09-18T02:21:06.368Z,18.24
2017-09-18T02:21:34.297Z,18.29
2017-09-18T02:22:02.295Z,18.26
2017-09-18T02:22:30.490Z,18.27
2017-09-18T02:22:58.477Z,18.23
2017-09-18T02:23:26.460Z,18.32
2017-09-18T02:23:54.482Z,18.32
2017-09-18T02:24:22.498Z,18.26
2017-09-18T02:24:50.624Z,18.31
2017-09-18T02:25:18.497Z,18.27
2017-09-18T02:25:46.539Z,18.31
2017-09-18T02:26:14.490Z,18.32
2017-09-18T02:26:42.502Z,18.27
2017-09-18T02:27:10.416Z,18.31
2017-09-18T02:27:38.595Z,18.27
2017-09-18T02:28:06.565Z,18.27
2017-09-18T02:28:34.568Z,18.27
2017-09-18T02:29:02.635Z,18.29
2017-09-18T02:29:30.751Z,18.26
2017-09-18T02:29:58.869Z,18.26
2017-09-18T02:30:26.958Z,18.23
2017-09-18T02:30:55.072Z,18.26
2017-09-18T02:31:23.079Z,18.29
2017-09-18T02:31:51.055Z,18.2
2017-09-18T02:32:19.193Z,18.1
2017-09-18T02:32:47.100Z,18.14
2017-09-18T02:33:14.981Z,18.16
2017-09-18T02:33:42.916Z,18.11
2017-09-18T02:34:10.934Z,18.06
2017-09-18T02:34:38.997Z,18.06
2017-09-18T02:35:07.073Z,18.06
2017-09-18T02:35:35.177Z,18.06
2017-09-18T02:36:03.177Z,18.13
2017-09-18T02:36:31.158Z,18.11
2017-09-18T02:36:59.165Z,18.11
2017-09-18T02:37:27.360Z,18.06
2017-09-18T02:37:55.380Z,18.1
2017-09-18T02:38:23.479Z,18.14
2017-09-18T02:38:51.417Z,18.1
2017-09-18T02:39:19.516Z,18.14
2017-09-18T02:39:47.618Z,18.17
2017-09-18T02:40:15.599Z,18.27
2017-09-18T02:40:43.485Z,18.19
2017-09-18T02:41:11.585Z,18.21
2017-09-18T02:41:39.690Z,18.19
2017-09-18T02:42:07.717Z,18.14
2017-09-18T02:42:35.804Z,18.14
2017-09-18T02:43:03.898Z,18.1
2017-09-18T02:43:31.905Z,18.1
2017-09-18T02:43:59.907Z,18.11
2017-09-18T02:44:27.761Z,18.17
2017-09-18T02:44:55.851Z,18.14
2017-09-18T02:45:23.950Z,18.06
2017-09-18T02:45:51.851Z,18.19
2017-09-18T02:46:19.840Z,18.1
2017-09-18T02:46:47.945Z,18.23
2017-09-18T02:47:16.067Z,18.16
2017-09-18T02:47:44.195Z,18.2
2017-09-18T02:48:12.085Z,18.14
2017-09-18T02:48:39.863Z,18.1
2017-09-18T02:49:07.728Z,18.11
2017-09-18T02:49:35.728Z,18.14
2017-09-18T02:50:03.634Z,18.27
2017-09-18T02:50:31.749Z,18.23
2017-09-18T02:50:59.567Z,18.21
2017-09-18T02:51:27.693Z,18.23
2017-09-18T02:51:55.437Z,18.23
2017-09-18T02:52:23.372Z,18.24
2017-09-18T02:52:51.558Z,18.24
2017-09-18T02:53:19.470Z,18.26
2017-09-18T02:53:47.401Z,18.21
2017-09-18T02:54:15.312Z,18.29
2017-09-18T02:54:43.321Z,18.27
2017-09-18T02:55:11.353Z,18.34
2017-09-18T02:55:39.340Z,18.26
2017-09-18T02:56:07.387Z,18.31
2017-09-18T02:56:35.510Z,18.29
2017-09-18T02:57:03.595Z,18.32
2017-09-18T02:57:31.581Z,18.27
2017-09-18T02:57:59.470Z,18.31
2017-09-18T02:58:27.585Z,18.31
2017-09-18T02:58:55.683Z,18.32
2017-09-18T02:59:23.595Z,18.34
2017-09-18T02:59:51.503Z,18.29
2017-09-18T03:00:19.430Z,18.32
2017-09-18T03:00:47.529Z,18.31
2017-09-18T03:01:15.407Z,18.36
2017-09-18T03:01:43.400Z,18.39
2017-09-18T03:02:11.389Z,18.27
2017-09-18T03:02:39.477Z,18.29
2017-09-18T03:03:07.448Z,18.32
2017-09-18T03:03:35.476Z,18.29
2017-09-18T03:04:03.474Z,18.27
2017-09-18T03:04:31.592Z,18.32
2017-09-18T03:04:59.616Z,18.31
2017-09-18T03:05:27.710Z,18.26
2017-09-18T03:05:55.739Z,18.29
2017-09-18T03:06:23.732Z,18.26
2017-09-18T03:06:51.492Z,18.31
2017-09-18T03:07:19.624Z,18.35
2017-09-18T03:07:47.654Z,18.26
2017-09-18T03:08:15.561Z,18.26
2017-09-18T03:08:43.569Z,18.31
2017-09-18T03:09:11.387Z,18.29
2017-09-18T03:09:39.374Z,18.29
2017-09-18T03:10:07.458Z,18.29
2017-09-18T03:10:35.559Z,18.27
2017-09-18T03:11:03.468Z,18.27
2017-09-18T03:11:31.490Z,18.23
2017-09-18T03:11:59.183Z,18.26
2017-09-18T03:12:27.303Z,18.17
2017-09-18T03:12:55.498Z,18.2
2017-09-18T03:13:23.319Z,18.11
2017-09-18T03:13:51.210Z,18.21
2017-09-18T03:14:19.008Z,18.14
2017-09-18T03:14:47.079Z,18.16
2017-09-18T03:15:15.083Z,18.11
2017-09-18T03:15:43.181Z,18.19
2017-09-18T03:16:11.161Z,18.1
2017-09-18T03:16:39.144Z,18.1
2017-09-18T03:17:07.049Z,18.08
2017-09-18T03:17:34.929Z,18.13
2017-09-18T03:18:02.918Z,18.13
2017-09-18T03:18:30.923Z,18.1
2017-09-18T03:18:59.015Z,18.08
2017-09-18T03:19:27.016Z,18.05
2017-09-18T03:19:55.107Z,18.11
2017-09-18T03:20:22.972Z,18.08
2017-09-18T03:20:51.084Z,18.05
2017-09-18T03:21:18.914Z,18.01
2017-09-18T03:21:46.798Z,18.08
2017-09-18T03:22:14.886Z,18.08
2017-09-18T03:22:42.990Z,17.98
2017-09-18T03:23:11.079Z,18.1
2017-09-18T03:23:38.879Z,18.06
2017-09-18T03:24:06.974Z,18.03
2017-09-18T03:24:34.757Z,18.06
2017-09-18T03:25:02.757Z,18.02
2017-09-18T03:25:30.783Z,18.11
2017-09-18T03:25:58.850Z,18.03
2017-09-18T03:26:26.993Z,18.06
2017-09-18T03:26:54.856Z,18.16
2017-09-18T03:27:22.887Z,18.17
2017-09-18T03:27:50.872Z,18.14
2017-09-18T03:28:18.879Z,18.1
2017-09-18T03:28:46.922Z,18.14
2017-09-18T03:29:15.026Z,18.13
2017-09-18T03:29:43.142Z,18.11
2017-09-18T03:30:11.247Z,18.1
2017-09-18T03:30:39.054Z,18.14
2017-09-18T03:31:06.966Z,18.11
2017-09-18T03:31:34.903Z,18.13
2017-09-18T03:32:02.988Z,18.14
2017-09-18T03:32:30.982Z,18.08
2017-09-18T03:32:59.180Z,18.14
2017-09-18T03:33:27.168Z,18.14
2017-09-18T03:33:55.175Z,18.16
2017-09-18T03:34:23.284Z,18.11
2017-09-18T03:34:51.213Z,18.11
2017-09-18T03:35:19.211Z,18.14
2017-09-18T03:35:47.000Z,18.2
2017-09-18T03:36:14.979Z,18.11
2017-09-18T03:36:42.997Z,18.26
2017-09-18T03:37:11.082Z,18.19
2017-09-18T03:37:38.983Z,18.16
2017-09-18T03:38:07.181Z,18.11
2017-09-18T03:38:35.081Z,18.27
2017-09-18T03:39:03.159Z,18.31
2017-09-18T03:39:31.279Z,18.16
2017-09-18T03:39:59.054Z,18.2
2017-09-18T03:40:27.053Z,18.2
2017-09-18T03:40:55.148Z,18.13
2017-09-18T03:41:22.838Z,18.24
2017-09-18T03:41:50.862Z,18.19
2017-09-18T03:42:18.971Z,18.13
2017-09-18T03:42:46.999Z,18.27
2017-09-18T03:43:15.204Z,18.23
2017-09-18T03:43:43.122Z,18.26
2017-09-18T03:44:11.194Z,18.2
2017-09-18T03:44:39.227Z,18.27
2017-09-18T03:45:07.225Z,18.26
2017-09-18T03:45:35.219Z,18.27
2017-09-18T03:46:03.111Z,18.35
2017-09-18T03:46:31.240Z,18.26
2017-09-18T03:46:59.154Z,18.26
2017-09-18T03:47:27.057Z,18.27
2017-09-18T03:47:55.307Z,18.26
2017-09-18T03:48:23.286Z,18.29
2017-09-18T03:48:51.178Z,18.24
2017-09-18T03:49:19.080Z,18.24
2017-09-18T03:49:47.080Z,18.24
2017-09-18T03:50:15.152Z,18.26
2017-09-18T03:50:43.144Z,18.24
2017-09-18T03:51:11.055Z,18.21
2017-09-18T03:51:39.155Z,18.26
2017-09-18T03:52:07.135Z,18.34
2017-09-18T03:52:35.017Z,18.27
2017-09-18T03:53:03.092Z,18.31
2017-09-18T03:53:31.080Z,18.26
2017-09-18T03:53:59.102Z,18.29
2017-09-18T03:54:27.081Z,18.26
2017-09-18T03:54:55.172Z,18.26
2017-09-18T03:55:23.160Z,18.23
2017-09-18T03:55:51.181Z,18.24
2017-09-18T03:56:19.260Z,18.27
2017-09-18T03:56:47.288Z,18.26
2017-09-18T03:57:15.329Z,18.24
2017-09-18T03:57:43.306Z,18.26
2017-09-18T03:58:11.508Z,18.24
2017-09-18T03:58:39.594Z,18.34
2017-09-18T03:59:07.527Z,18.27
2017-09-18T03:59:35.546Z,18.34
2017-09-18T04:00:03.508Z,18.21
2017-09-18T04:00:31.379Z,18.31
2017-09-18T04:00:59.381Z,18.24
2017-09-18T04:01:27.493Z,18.24
2017-09-18T04:01:55.404Z,18.21
2017-09-18T04:02:23.242Z,18.31
2017-09-18T04:02:51.261Z,18.34
2017-09-18T04:03:19.382Z,18.24
2017-09-18T04:03:47.371Z,18.17
2017-09-18T04:04:15.496Z,18.2
2017-09-18T04:04:43.406Z,18.19
2017-09-18T04:05:11.388Z,18.23
2017-09-18T04:05:39.277Z,18.23
2017-09-18T04:06:07.163Z,18.23
2017-09-18T04:06:35.288Z,18.16
2017-09-18T04:07:03.267Z,18.23
2017-09-18T04:07:31.125Z,18.2
2017-09-18T04:07:59.126Z,18.19
2017-09-18T04:08:27.323Z,18.26
2017-09-18T04:08:55.227Z,18.31
2017-09-18T04:09:23.239Z,18.27
2017-09-18T04:09:51.303Z,18.27
2017-09-18T04:10:19.395Z,18.32
2017-09-18T04:10:47.500Z,18.23
2017-09-18T04:11:15.595Z,18.23
2017-09-18T04:11:43.476Z,18.23
2017-09-18T04:12:11.484Z,18.24
2017-09-18T04:12:39.390Z,18.21
2017-09-18T04:13:07.394Z,18.1
2017-09-18T04:13:35.367Z,18.17
2017-09-18T04:14:03.263Z,18.11
2017-09-18T04:14:31.180Z,18.19
2017-09-18T04:14:59.185Z,18.13
2017-09-18T04:15:27.072Z,18.13
2017-09-18T04:15:55.154Z,18.14
2017-09-18T04:16:23.041Z,18.19
2017-09-18T04:16:51.034Z,18.14
2017-09-18T04:17:19.023Z,18.19
2017-09-18T04:17:46.925Z,18.23
2017-09-18T04:18:15.005Z,18.27
2017-09-18T04:18:43.103Z,18.2
2017-09-18T04:19:11.076Z,18.2
2017-09-18T04:19:38.806Z,18.23
2017-09-18T04:20:06.889Z,18.31
2017-09-18T04:20:34.680Z,18.31
2017-09-18T04:21:02.766Z,18.27
2017-09-18T04:21:30.676Z,18.27
2017-09-18T04:21:58.590Z,18.31
2017-09-18T04:22:26.592Z,18.34
2017-09-18T04:22:54.608Z,18.29
2017-09-18T04:23:22.740Z,18.27
2017-09-18T04:23:50.703Z,18.26
2017-09-18T04:24:18.617Z,18.29
2017-09-18T04:24:46.671Z,18.26
2017-09-18T04:25:14.776Z,18.26
2017-09-18T04:25:42.899Z,18.29
2017-09-18T04:26:10.801Z,18.32
2017-09-18T04:26:38.774Z,18.32
2017-09-18T04:27:06.660Z,18.27
2017-09-18T04:27:34.539Z,18.34
2017-09-18T04:28:02.522Z,18.26
2017-09-18T04:28:30.620Z,18.31
2017-09-18T04:28:58.616Z,18.31
2017-09-18T04:29:26.650Z,18.29
2017-09-18T04:29:54.769Z,18.26
2017-09-18T04:30:22.611Z,18.31
2017-09-18T04:30:50.318Z,18.26
2017-09-18T04:31:18.330Z,18.34
2017-09-18T04:31:46.323Z,18.35
2017-09-18T04:32:14.359Z,18.34
2017-09-18T04:32:42.150Z,18.31
2017-09-18T04:33:10.171Z,18.31
2017-09-18T04:33:38.169Z,18.26
2017-09-18T04:34:06.167Z,18.27
2017-09-18T04:34:34.150Z,18.35
2017-09-18T04:35:02.281Z,18.24
2017-09-18T04:35:30.180Z,18.27
2017-09-18T04:35:58.252Z,18.26
2017-09-18T04:36:26.263Z,18.35
2017-09-18T04:36:54.370Z,18.32
2017-09-18T04:37:22.367Z,18.27
2017-09-18T04:37:50.286Z,18.27
2017-09-18T04:38:18.394Z,18.31
2017-09-18T04:38:46.283Z,18.31
2017-09-18T04:39:14.318Z,18.31
2017-09-18T04:39:42.221Z,18.24
2017-09-18T04:40:10.142Z,18.29
2017-09-18T04:40:37.946Z,18.32
2017-09-18T04:41:05.744Z,18.29
2017-09-18T04:41:33.752Z,18.32
2017-09-18T04:42:01.769Z,18.19
2017-09-18T04:42:29.891Z,18.23
2017-09-18T04:42:57.902Z,18.34
2017-09-18T04:43:25.895Z,18.27
2017-09-18T04:43:53.882Z,18.29
2017-09-18T04:44:21.987Z,18.35
2017-09-18T04:44:49.889Z,18.34
2017-09-18T04:45:17.697Z,18.34
2017-09-18T04:45:45.755Z,18.31
2017-09-18T04:46:13.744Z,18.35
2017-09-18T04:46:41.749Z,18.26
2017-09-18T04:47:09.784Z,18.34
2017-09-18T04:47:37.688Z,18.27
2017-09-18T04:48:05.704Z,18.38
2017-09-18T04:48:33.709Z,18.38
2017-09-18T04:49:01.755Z,18.44
2017-09-18T04:49:29.863Z,18.39
2017-09-18T04:49:57.964Z,18.38
2017-09-18T04:50:26.054Z,18.38
2017-09-18T04:50:54.076Z,18.32
2017-09-18T04:51:21.873Z,18.39
2017-09-18T04:51:49.915Z,18.41
2017-09-18T04:52:18.000Z,18.39
2017-09-18T04:52:45.790Z,18.38
2017-09-18T04:53:13.793Z,18.26
2017-09-18T04:53:41.720Z,18.24
2017-09-18T04:54:09.679Z,18.26
2017-09-18T04:54:37.805Z,18.29
2017-09-18T04:55:05.786Z,18.34
2017-09-18T04:55:33.863Z,18.24
2017-09-18T04:56:01.768Z,18.31
2017-09-18T04:56:29.755Z,18.31
2017-09-18T04:56:57.783Z,18.31
2017-09-18T04:57:25.803Z,18.26
2017-09-18T04:57:53.843Z,18.21
2017-09-18T04:58:21.758Z,18.24
2017-09-18T04:58:49.992Z,18.29
2017-09-18T04:59:18.000Z,18.19
2017-09-18T04:59:46.000Z,18.23
2017-09-18T05:00:13.991Z,18.24
2017-09-18T05:00:41.978Z,18.14
2017-09-18T05:01:09.987Z,18.23
2017-09-18T05:01:37.886Z,18.2
2017-09-18T05:02:05.581Z,18.14
2017-09-18T05:02:33.700Z,18.1
2017-09-18T05:03:01.518Z,18.11
2017-09-18T05:03:29.464Z,18.14
2017-09-18T05:03:57.476Z,18.16
2017-09-18T05:04:25.628Z,18.11
2017-09-18T05:04:53.685Z,18.17
2017-09-18T05:05:21.768Z,18.16
2017-09-18T05:05:49.839Z,18.13
2017-09-18T05:06:17.816Z,18.13
2017-09-18T05:06:45.730Z,18.14
2017-09-18T05:07:13.631Z,18.13
2017-09-18T05:07:41.710Z,18.17
2017-09-18T05:08:09.601Z,18.14
2017-09-18T05:08:37.740Z,18.11
2017-09-18T05:09:05.749Z,18.14
2017-09-18T05:09:33.664Z,18.13
2017-09-18T05:10:01.662Z,18.19
2017-09-18T05:10:29.679Z,18.11
2017-09-18T05:10:57.684Z,18.16
2017-09-18T05:11:25.582Z,18.17
2017-09-18T05:11:53.607Z,18.21
2017-09-18T05:12:21.733Z,18.19
2017-09-18T05:12:49.753Z,18.24
2017-09-18T05:13:17.877Z,18.11
2017-09-18T05:13:45.973Z,18.21
2017-09-18T05:14:13.822Z,18.17
2017-09-18T05:14:41.912Z,18.17
2017-09-18T05:15:10.058Z,18.19
2017-09-18T05:15:38.139Z,18.19
2017-09-18T05:16:06.235Z,18.14
2017-09-18T05:16:34.129Z,18.08
2017-09-18T05:17:02.229Z,18.1
2017-09-18T05:17:30.249Z,18.06
2017-09-18T05:17:58.360Z,18.1
2017-09-18T05:18:26.265Z,18.08
2017-09-18T05:18:54.447Z,18.06
2017-09-18T05:19:22.470Z,18.1
2017-09-18T05:19:50.610Z,18.05
2017-09-18T05:20:18.679Z,18.13
2017-09-18T05:20:46.692Z,18.16
2017-09-18T05:21:14.491Z,18.16
2017-09-18T05:21:42.390Z,18.11
2017-09-18T05:22:10.375Z,18.11
2017-09-18T05:22:38.299Z,18.17
2017-09-18T05:23:06.341Z,18.17
2017-09-18T05:23:34.345Z,18.24
2017-09-18T05:24:02.461Z,18.2
2017-09-18T05:24:30.449Z,18.27
2017-09-18T05:24:58.452Z,18.19
2017-09-18T05:25:26.360Z,18.17
2017-09-18T05:25:54.375Z,18.17
2017-09-18T05:26:22.246Z,18.13
2017-09-18T05:26:50.156Z,18.19
2017-09-18T05:27:18.244Z,18.16
2017-09-18T05:27:46.185Z,18.16
2017-09-18T05:28:14.165Z,18.08
2017-09-18T05:28:42.388Z,18.08
2017-09-18T05:29:10.504Z,18.14
2017-09-18T05:29:38.529Z,18.14
2017-09-18T05:30:06.649Z,18.14
2017-09-18T05:30:34.559Z,18.14
2017-09-18T05:31:02.443Z,18.06
2017-09-18T05:31:30.403Z,18.1
2017-09-18T05:31:58.382Z,18.16
2017-09-18T05:32:26.377Z,18.16
2017-09-18T05:32:54.505Z,18.16
2017-09-18T05:33:22.516Z,18.16
2017-09-18T05:33:50.763Z,18.11
2017-09-18T05:34:18.713Z,18.19
2017-09-18T05:34:46.614Z,18.2
2017-09-18T05:35:14.584Z,18.19
2017-09-18T05:35:42.697Z,18.19
2017-09-18T05:36:10.621Z,18.11
2017-09-18T05:36:38.607Z,18.14
2017-09-18T05:37:06.509Z,18.08
2017-09-18T05:37:34.404Z,18.1
2017-09-18T05:38:02.391Z,18.05
2017-09-18T05:38:30.390Z,18.16
2017-09-18T05:38:58.501Z,18.13
2017-09-18T05:39:26.432Z,18.2
2017-09-18T05:39:54.436Z,18.19
2017-09-18T05:40:22.314Z,18.08
2017-09-18T05:40:50.426Z,18.1
2017-09-18T05:41:18.391Z,18.16
2017-09-18T05:41:46.507Z,18.14
2017-09-18T05:42:14.511Z,18.13
2017-09-18T05:42:42.491Z,18.05
2017-09-18T05:43:10.615Z,18.13
2017-09-18T05:43:38.506Z,18.06
2017-09-18T05:44:06.495Z,18.11
2017-09-18T05:44:34.393Z,18.14
2017-09-18T05:45:02.299Z,18.05
2017-09-18T05:45:30.404Z,18.1
2017-09-18T05:45:58.209Z,18.08
2017-09-18T05:46:26.109Z,18.1
2017-09-18T05:46:54.214Z,18.14
2017-09-18T05:47:22.156Z,18.19
2017-09-18T05:47:50.162Z,18.19
2017-09-18T05:48:18.239Z,18.11
2017-09-18T05:48:46.239Z,18.11
2017-09-18T05:49:14.237Z,18.11
2017-09-18T05:49:42.030Z,18.06
2017-09-18T05:50:09.949Z,18.17
2017-09-18T05:50:37.955Z,18.08
2017-09-18T05:51:06.057Z,18.16
2017-09-18T05:51:34.173Z,18.11
2017-09-18T05:52:02.293Z,18.13
2017-09-18T05:52:30.293Z,18.19
2017-09-18T05:52:58.194Z,18.16
2017-09-18T05:53:26.195Z,18.14
2017-09-18T05:53:54.098Z,18.17
2017-09-18T05:54:22.110Z,18.16
2017-09-18T05:54:50.010Z,18.08
2017-09-18T05:55:17.919Z,18.16
2017-09-18T05:55:45.939Z,18.16
2017-09-18T05:56:14.045Z,18.16
2017-09-18T05:56:41.978Z,18.16
2017-09-18T05:57:10.043Z,18.08
2017-09-18T05:57:38.118Z,18.08
2017-09-18T05:58:06.130Z,18.11
2017-09-18T05:58:33.948Z,18.13
2017-09-18T05:59:02.064Z,18.13
2017-09-18T05:59:30.048Z,18.1
2017-09-18T05:59:58.067Z,18.14
2017-09-18T06:00:26.064Z,18.11
2017-09-18T06:00:54.054Z,18.1
2017-09-18T06:01:22.131Z,18.1
2017-09-18T06:01:50.115Z,18.16